createdAt,value
2023-03-24T00:00:25.943Z,2.03
2023-03-24T00:03:01.837Z,1.65
2023-03-24T00:05:33.155Z,1.70
2023-03-24T00:08:04.625Z,1.90
2023-03-24T00:10:43.120Z,2.70
2023-03-24T00:13:14.436Z,2.78
2023-03-24T00:15:45.879Z,2.85
2023-03-24T00:18:17.088Z,2.42
2023-03-24T00:20:49.163Z,2.50
2023-03-24T00:23:21.017Z,1.95
2023-03-24T00:26:04.215Z,2.35
2023-03-24T00:28:37.422Z,2.42
2023-03-24T00:31:10.542Z,2.28
2023-03-24T00:33:42.869Z,1.83
2023-03-24T00:36:15.468Z,2.05
2023-03-24T00:38:47.733Z,2.03
2023-03-24T00:41:25.432Z,2.45
2023-03-24T00:44:01.078Z,2.50
2023-03-24T00:46:34.086Z,2.80
2023-03-24T00:49:07.628Z,2.78
2023-03-24T00:51:40.916Z,2.78
2023-03-24T00:54:14.479Z,2.20
2023-03-24T00:56:50.104Z,2.97
2023-03-24T00:59:21.841Z,2.97
2023-03-24T01:01:53.650Z,3.38
2023-03-24T01:04:24.868Z,2.00
2023-03-24T01:06:58.761Z,2.90
2023-03-24T01:09:29.997Z,2.03
2023-03-24T01:12:04.410Z,2.08
2023-03-24T01:14:36.369Z,3.10
2023-03-24T01:17:09.941Z,1.98
2023-03-24T01:19:47.040Z,2.10
2023-03-24T01:22:21.781Z,2.00
2023-03-24T01:24:57.268Z,2.30
2023-03-24T01:27:31.888Z,2.55
2023-03-24T01:30:04.430Z,2.13
2023-03-24T01:32:35.673Z,2.13
2023-03-24T01:35:07.892Z,2.28
2023-03-24T01:37:39.342Z,2.30
2023-03-24T01:40:12.862Z,2.17
2023-03-24T01:42:46.782Z,1.83
2023-03-24T01:45:53.735Z,1.58
2023-03-24T01:48:30.102Z,2.85
2023-03-24T01:51:05.083Z,2.20
2023-03-24T01:53:39.368Z,2.13
2023-03-24T01:56:12.754Z,3.13
2023-03-24T01:58:53.973Z,2.05
2023-03-24T02:01:43.191Z,2.08
2023-03-24T02:04:40.339Z,2.97
2023-03-24T02:07:19.411Z,2.55
2023-03-24T02:09:50.643Z,2.70
2023-03-24T02:12:21.696Z,2.35
2023-03-24T02:14:56.586Z,2.78
2023-03-24T02:17:52.178Z,2.47
2023-03-24T02:20:51.924Z,2.20
2023-03-24T02:24:01.077Z,3.05
2023-03-24T02:26:59.131Z,2.67
2023-03-24T02:29:56.938Z,3.05
2023-03-24T02:32:56.256Z,3.53
2023-03-24T02:35:52.927Z,2.70
2023-03-24T02:38:55.156Z,2.30
2023-03-24T02:41:35.279Z,2.75
2023-03-24T02:44:17.738Z,2.67
2023-03-24T02:46:55.310Z,2.22
2023-03-24T02:49:35.315Z,2.70
2023-03-24T02:52:11.433Z,2.08
2023-03-24T02:54:50.836Z,2.25
2023-03-24T02:57:31.766Z,2.17
2023-03-24T03:00:37.932Z,2.58
2023-03-24T03:03:17.276Z,3.05
2023-03-24T03:05:58.152Z,2.40
2023-03-24T03:08:34.330Z,2.70
2023-03-24T03:11:08.965Z,3.00
2023-03-24T03:13:47.939Z,2.97
2023-03-24T03:16:25.828Z,2.90
2023-03-24T03:19:02.056Z,2.45
2023-03-24T03:21:39.701Z,2.40
2023-03-24T03:24:15.837Z,2.28
2023-03-24T03:26:49.525Z,3.57
2023-03-24T03:29:27.553Z,2.33
2023-03-24T03:32:08.139Z,3.20
2023-03-24T03:34:45.450Z,3.38
2023-03-24T03:37:28.746Z,2.17
2023-03-24T03:40:03.666Z,2.88
2023-03-24T03:42:35.972Z,2.58
2023-03-24T03:45:12.966Z,2.40
2023-03-24T03:47:47.393Z,3.20
2023-03-24T03:50:20.697Z,2.42
2023-03-24T03:52:54.741Z,2.40
2023-03-24T03:55:27.879Z,3.05
2023-03-24T03:58:00.635Z,3.40
2023-03-24T04:00:48.152Z,3.42
2023-03-24T04:04:13.876Z,2.90
2023-03-24T04:07:19.858Z,3.63
2023-03-24T04:10:15.460Z,3.08
2023-03-24T04:13:10.963Z,3.30
2023-03-24T04:16:12.435Z,3.42
2023-03-24T04:19:14.898Z,2.50
2023-03-24T04:22:00.869Z,3.63
2023-03-24T04:24:43.717Z,4.22
2023-03-24T04:27:30.203Z,2.40
2023-03-24T04:30:11.457Z,3.72
2023-03-24T04:32:50.637Z,3.65
2023-03-24T04:35:34.642Z,3.67
2023-03-24T04:38:33.073Z,3.25
2023-03-24T04:41:30.196Z,3.80
2023-03-24T04:44:13.984Z,3.58
2023-03-24T04:47:03.608Z,3.85
2023-03-24T04:49:42.094Z,3.30
2023-03-24T04:52:13.270Z,3.03
2023-03-24T04:54:44.576Z,3.17
2023-03-24T04:57:16.187Z,3.63
2023-03-24T04:59:50.461Z,3.72
2023-03-24T05:02:23.218Z,3.78
2023-03-24T05:05:17.457Z,4.05
2023-03-24T05:07:52.361Z,3.35
2023-03-24T05:10:23.771Z,3.70
2023-03-24T05:12:59.044Z,3.25
2023-03-24T05:15:30.092Z,4.68
2023-03-24T05:18:16.034Z,4.05
2023-03-24T05:20:49.917Z,3.83
2023-03-24T05:23:24.808Z,3.92
2023-03-24T05:25:56.852Z,4.10
2023-03-24T05:28:29.817Z,3.08
2023-03-24T05:31:02.557Z,3.65
2023-03-24T05:33:48.821Z,4.13
2023-03-24T05:36:25.960Z,2.92
2023-03-24T05:39:02.784Z,4.03
2023-03-24T05:41:45.598Z,3.20
2023-03-24T05:44:16.647Z,3.70
2023-03-24T05:46:58.158Z,3.88
2023-03-24T05:49:32.136Z,3.85
2023-03-24T05:52:09.542Z,3.13
2023-03-24T05:54:46.432Z,4.50
2023-03-24T05:57:22.252Z,3.38
2023-03-24T06:00:17.359Z,4.03
2023-03-24T06:03:02.001Z,4.22
2023-03-24T06:05:48.511Z,4.75
2023-03-24T06:08:25.006Z,4.20
2023-03-24T06:10:58.956Z,3.50
2023-03-24T06:13:30.369Z,3.78
2023-03-24T06:16:03.898Z,3.92
2023-03-24T06:18:43.697Z,4.07
2023-03-24T06:21:35.161Z,3.65
2023-03-24T06:24:11.062Z,3.90
2023-03-24T06:26:45.033Z,4.22
2023-03-24T06:29:18.524Z,4.05
2023-03-24T06:31:52.837Z,3.95
2023-03-24T06:34:25.546Z,4.63
2023-03-24T06:37:16.028Z,3.22
2023-03-24T06:39:50.116Z,4.13
2023-03-24T06:42:25.887Z,5.65
2023-03-24T06:44:58.565Z,5.10
2023-03-24T06:47:30.282Z,3.60
2023-03-24T06:50:01.852Z,3.33
2023-03-24T06:52:33.306Z,4.50
2023-03-24T06:55:08.667Z,4.43
2023-03-24T06:57:40.201Z,3.70
2023-03-24T07:00:38.284Z,3.97
2023-03-24T07:03:35.674Z,4.05
2023-03-24T07:06:26.030Z,4.03
2023-03-24T07:09:05.213Z,5.20
2023-03-24T07:11:39.358Z,5.65
2023-03-24T07:14:11.308Z,5.30
2023-03-24T07:16:43.973Z,4.57
2023-03-24T07:19:37.637Z,4.65
2023-03-24T07:22:26.213Z,3.65
2023-03-24T07:25:20.814Z,5.53
2023-03-24T07:28:11.501Z,4.53
2023-03-24T07:30:46.641Z,4.00
2023-03-24T07:33:25.883Z,4.60
2023-03-24T07:36:07.350Z,3.38
2023-03-24T07:38:43.267Z,4.55
2023-03-24T07:41:23.966Z,4.25
2023-03-24T07:44:05.204Z,4.85
2023-03-24T07:46:44.281Z,5.10
2023-03-24T07:49:19.397Z,3.53
2023-03-24T07:52:06.936Z,4.43
2023-03-24T07:54:47.899Z,4.05
2023-03-24T07:57:40.169Z,3.97
2023-03-24T08:00:18.529Z,4.10
2023-03-24T08:03:00.566Z,3.17
2023-03-24T08:05:45.501Z,4.43
2023-03-24T08:08:35.824Z,3.42
2023-03-24T08:11:07.433Z,3.30
2023-03-24T08:13:38.430Z,3.20
2023-03-24T08:16:12.793Z,3.05
2023-03-24T08:18:44.552Z,3.30
2023-03-24T08:21:15.867Z,2.95
2023-03-24T08:23:47.283Z,2.45
2023-03-24T08:26:18.949Z,2.55
2023-03-24T08:28:50.058Z,2.75
2023-03-24T08:31:23.887Z,2.88
2023-03-24T08:33:57.069Z,2.33
2023-03-24T08:36:28.578Z,3.20
2023-03-24T08:39:03.314Z,2.47
2023-03-24T08:41:37.730Z,1.88
2023-03-24T08:44:10.731Z,2.33
2023-03-24T08:46:44.837Z,3.45
2023-03-24T08:49:16.325Z,2.70
2023-03-24T08:51:48.189Z,2.72
2023-03-24T08:54:22.105Z,3.45
2023-03-24T08:56:54.190Z,2.67
2023-03-24T08:59:25.782Z,3.83
2023-03-24T09:02:00.794Z,3.47
2023-03-24T09:04:32.605Z,3.60
2023-03-24T09:07:05.076Z,2.95
2023-03-24T09:09:36.963Z,3.35
2023-03-24T09:12:08.160Z,3.40
2023-03-24T09:14:39.461Z,4.10
2023-03-24T09:17:13.401Z,3.50
2023-03-24T09:19:45.237Z,4.13
2023-03-24T09:22:16.761Z,4.43
2023-03-24T09:24:49.546Z,2.72
2023-03-24T09:27:21.153Z,2.85
2023-03-24T09:29:54.175Z,3.28
2023-03-24T09:32:28.242Z,4.03
2023-03-24T09:34:59.668Z,3.20
2023-03-24T09:37:33.479Z,2.38
2023-03-24T09:40:05.363Z,3.25
2023-03-24T09:42:43.545Z,2.55
2023-03-24T09:45:22.287Z,2.95
2023-03-24T09:48:01.622Z,2.72
2023-03-24T09:50:38.220Z,3.20
2023-03-24T09:53:13.255Z,2.92
2023-03-24T09:55:47.416Z,3.45
2023-03-24T09:58:19.788Z,2.97
2023-03-24T10:00:51.866Z,2.58
2023-03-24T10:03:27.753Z,2.92
2023-03-24T10:06:05.675Z,2.55
2023-03-24T10:08:41.230Z,2.38
2023-03-24T10:11:24.381Z,2.33
2023-03-24T10:14:11.154Z,2.65
2023-03-24T10:16:50.793Z,2.70
2023-03-24T10:19:34.335Z,2.13
2023-03-24T10:22:09.918Z,2.00
2023-03-24T10:24:48.623Z,3.22
2023-03-24T10:27:31.496Z,2.55
2023-03-24T10:30:10.438Z,2.58
2023-03-24T10:32:43.646Z,2.25
2023-03-24T10:35:26.153Z,2.15
2023-03-24T10:38:00.755Z,2.17
2023-03-24T10:40:35.401Z,1.60
2023-03-24T10:43:11.608Z,2.97
2023-03-24T10:48:18.435Z,2.50
2023-03-24T10:50:52.614Z,2.20
2023-03-24T10:53:24.823Z,1.95
2023-03-24T10:55:56.600Z,2.65
2023-03-24T10:58:33.975Z,2.17
2023-03-24T11:01:06.934Z,2.22
2023-03-24T11:03:40.984Z,2.20
2023-03-24T11:06:22.180Z,2.22
2023-03-24T11:09:12.681Z,2.00
2023-03-24T11:11:43.922Z,2.13
2023-03-24T11:14:26.490Z,2.13
2023-03-24T11:17:07.101Z,1.65
2023-03-24T11:19:40.463Z,2.92
2023-03-24T11:22:15.852Z,2.40
2023-03-24T11:24:47.005Z,3.13
2023-03-24T11:27:19.662Z,3.78
2023-03-24T11:29:56.136Z,2.67
2023-03-24T11:32:30.458Z,2.65
2023-03-24T11:35:09.564Z,2.33
2023-03-24T11:37:43.400Z,3.17
2023-03-24T11:40:24.816Z,1.95
2023-03-24T11:43:00.926Z,2.00
2023-03-24T11:45:39.657Z,2.03
2023-03-24T11:48:25.396Z,1.73
2023-03-24T11:50:59.016Z,1.90
2023-03-24T11:53:41.823Z,1.55
2023-03-24T11:56:20.849Z,2.80
2023-03-24T11:58:56.879Z,1.65
2023-03-24T12:01:42.908Z,2.90
2023-03-24T12:07:13.898Z,1.90
2023-03-24T12:09:56.431Z,1.90
2023-03-24T12:12:36.725Z,2.50
2023-03-24T12:15:29.135Z,2.47
2023-03-24T12:18:13.519Z,2.80
2023-03-24T12:20:53.349Z,2.90
2023-03-24T12:23:40.671Z,2.22
2023-03-24T12:26:27.463Z,1.60
2023-03-24T12:29:39.422Z,2.17
2023-03-24T12:32:41.335Z,1.60
2023-03-24T12:35:47.565Z,1.95
2023-03-24T12:38:40.138Z,2.25
2023-03-24T12:41:44.231Z,1.73
2023-03-24T12:44:41.941Z,2.75
2023-03-24T12:47:35.704Z,2.20
2023-03-24T12:50:24.420Z,2.10
2023-03-24T12:53:18.450Z,2.03
2023-03-24T12:56:04.552Z,1.15
2023-03-24T12:58:49.715Z,1.30
2023-03-24T13:01:32.306Z,0.80
2023-03-24T13:04:13.565Z,1.50
2023-03-24T13:06:51.495Z,0.93
2023-03-24T13:09:37.301Z,1.20
2023-03-24T13:12:16.101Z,1.35
2023-03-24T13:15:02.067Z,2.92
2023-03-24T13:17:44.343Z,2.08
2023-03-24T13:20:29.004Z,2.10
2023-03-24T13:23:10.657Z,2.58
2023-03-24T13:25:54.242Z,1.83
2023-03-24T13:28:32.154Z,2.47
2023-03-24T13:31:12.211Z,2.42
2023-03-24T13:33:49.179Z,2.55
2023-03-24T13:36:40.731Z,2.75
2023-03-24T13:39:21.288Z,2.50
2023-03-24T13:41:57.834Z,2.47
2023-03-24T13:44:42.960Z,2.28
2023-03-24T13:47:24.156Z,1.30
2023-03-24T13:50:03.436Z,1.45
2023-03-24T13:52:42.194Z,1.58
2023-03-24T13:55:25.222Z,1.70
2023-03-24T13:58:04.127Z,1.95
2023-03-24T14:00:40.938Z,1.60
2023-03-24T14:03:38.865Z,2.20
2023-03-24T14:06:16.583Z,1.95
2023-03-24T14:09:05.097Z,2.00
2023-03-24T14:11:53.826Z,1.95
2023-03-24T14:14:26.749Z,1.90
2023-03-24T14:17:15.176Z,2.33
2023-03-24T14:20:15.346Z,2.25
2023-03-24T14:22:52.180Z,2.30
2023-03-24T14:25:30.825Z,1.73
2023-03-24T14:28:24.773Z,1.73
2023-03-24T14:31:15.884Z,0.98
2023-03-24T14:34:02.693Z,1.15
2023-03-24T14:36:40.241Z,0.93
2023-03-24T14:39:15.460Z,0.77
2023-03-24T14:41:56.253Z,0.90
2023-03-24T14:44:56.204Z,0.68
2023-03-24T14:47:29.881Z,2.00
2023-03-24T14:50:04.308Z,1.25
2023-03-24T14:52:44.936Z,1.02
2023-03-24T14:55:20.126Z,5.57
2023-03-24T14:57:56.840Z,1.17
2023-03-24T15:00:34.445Z,1.27
2023-03-24T15:03:21.000Z,0.75
2023-03-24T15:06:18.993Z,0.73
2023-03-24T15:08:57.739Z,1.10
2023-03-24T15:11:31.288Z,0.90
2023-03-24T15:14:05.033Z,1.02
2023-03-24T15:16:38.643Z,0.50
2023-03-24T15:19:13.346Z,0.70
2023-03-24T15:21:49.617Z,0.60
2023-03-24T15:24:35.727Z,0.45
2023-03-24T15:27:25.226Z,0.80
2023-03-24T15:30:01.318Z,0.40
2023-03-24T15:32:40.375Z,0.57
2023-03-24T15:35:18.041Z,1.27
2023-03-24T15:37:56.232Z,0.80
2023-03-24T15:40:44.705Z,1.17
2023-03-24T15:43:27.221Z,1.17
2023-03-24T15:46:11.649Z,1.65
2023-03-24T15:48:50.410Z,1.50
2023-03-24T15:51:22.548Z,1.70
2023-03-24T15:54:02.973Z,1.17
2023-03-24T15:56:41.033Z,1.35
2023-03-24T15:59:21.391Z,1.23
2023-03-24T16:01:58.265Z,1.50
2023-03-24T16:04:34.382Z,1.80
2023-03-24T16:07:11.793Z,1.37
2023-03-24T16:09:49.861Z,1.13
2023-03-24T16:12:30.726Z,1.30
2023-03-24T16:15:08.510Z,1.45
2023-03-24T16:17:41.714Z,1.38
2023-03-24T16:20:30.128Z,1.00
2023-03-24T16:23:02.360Z,1.55
2023-03-24T16:25:33.876Z,2.05
2023-03-24T16:28:08.575Z,1.35
2023-03-24T16:31:10.380Z,2.10
2023-03-24T16:33:41.597Z,2.38
2023-03-24T16:36:15.678Z,2.30
2023-03-24T16:38:47.187Z,2.20
2023-03-24T16:41:19.037Z,2.05
2023-03-24T16:43:53.553Z,1.95
2023-03-24T16:46:34.256Z,2.25
2023-03-24T16:49:07.576Z,2.03
2023-03-24T16:51:42.130Z,3.05
2023-03-24T16:54:19.609Z,2.97
2023-03-24T16:56:56.780Z,2.53
2023-03-24T16:59:36.469Z,2.63
2023-03-24T17:02:14.976Z,2.50
2023-03-24T17:04:51.518Z,3.88
2023-03-24T17:07:28.603Z,2.55
2023-03-24T17:12:36.627Z,2.03
2023-03-24T17:15:17.890Z,1.90
2023-03-24T17:17:53.789Z,1.60
2023-03-24T17:20:32.038Z,1.70
2023-03-24T17:23:10.359Z,1.77
2023-03-24T17:25:47.494Z,3.92
2023-03-24T17:28:24.629Z,2.40
2023-03-24T17:31:04.154Z,3.38
2023-03-24T17:33:36.768Z,1.70
2023-03-24T17:36:08.075Z,1.73
2023-03-24T17:38:40.251Z,3.17
2023-03-24T17:41:10.841Z,4.70
2023-03-24T17:43:41.295Z,1.63
2023-03-24T17:46:14.383Z,0.70
2023-03-24T17:48:46.651Z,0.70
2023-03-24T17:51:18.593Z,0.85
2023-03-24T17:53:49.074Z,0.73
2023-03-24T17:56:19.528Z,0.80
2023-03-24T17:58:55.112Z,0.85
2023-03-24T18:01:29.966Z,1.10
2023-03-24T18:04:00.910Z,0.85
2023-03-24T18:06:31.432Z,1.42
2023-03-24T18:09:01.818Z,1.10
2023-03-24T18:11:32.269Z,0.68
2023-03-24T18:14:02.765Z,0.80
2023-03-24T18:16:35.831Z,0.98
2023-03-24T18:19:06.452Z,0.90
2023-03-24T18:21:37.117Z,1.13
2023-03-24T18:24:08.970Z,1.17
2023-03-24T18:26:39.665Z,0.80
2023-03-24T18:29:10.271Z,1.45
2023-03-24T18:31:43.365Z,1.20
2023-03-24T18:34:13.946Z,0.70
2023-03-24T18:36:46.533Z,1.00
2023-03-24T18:39:17.054Z,1.10
2023-03-24T18:41:48.269Z,1.20
2023-03-24T18:44:19.420Z,1.08
2023-03-24T18:46:52.642Z,0.90
2023-03-24T18:49:23.105Z,1.02
2023-03-24T18:51:53.598Z,1.27
2023-03-24T18:54:24.129Z,0.95
2023-03-24T18:56:54.585Z,1.13
2023-03-24T18:59:25.032Z,1.15
2023-03-24T19:01:58.275Z,1.17
2023-03-24T19:04:31.170Z,0.80
2023-03-24T19:07:01.702Z,1.05
2023-03-24T19:09:32.435Z,1.17
2023-03-24T19:12:02.908Z,1.23
2023-03-24T19:14:34.688Z,1.35
2023-03-24T19:17:07.781Z,1.30
2023-03-24T19:19:38.343Z,0.90
2023-03-24T19:22:08.820Z,1.38
2023-03-24T19:24:39.184Z,1.92
2023-03-24T19:27:09.617Z,1.73
2023-03-24T19:29:40.050Z,1.88
2023-03-24T19:32:13.094Z,1.77
2023-03-24T19:34:43.657Z,1.67
2023-03-24T19:37:14.130Z,1.60
2023-03-24T19:39:46.242Z,1.95
2023-03-24T19:42:16.683Z,2.03
2023-03-24T19:44:47.168Z,2.15
2023-03-24T19:47:20.557Z,1.45
2023-03-24T19:49:51.498Z,1.20
2023-03-24T19:52:22.102Z,1.77
2023-03-24T19:54:52.694Z,1.75
2023-03-24T19:57:23.356Z,2.00
2023-03-24T19:59:53.857Z,1.67
2023-03-24T20:02:27.429Z,1.95
2023-03-24T20:04:58.632Z,1.70
2023-03-24T20:07:29.379Z,1.40
2023-03-24T20:10:00.008Z,2.10
2023-03-24T20:12:32.381Z,2.00
2023-03-24T20:15:02.766Z,2.08
2023-03-24T20:17:37.706Z,1.83
2023-03-24T20:20:10.471Z,2.38
2023-03-24T20:22:42.357Z,2.05
2023-03-24T20:25:13.874Z,2.15
2023-03-24T20:27:45.465Z,1.95
2023-03-24T20:30:17.997Z,3.63
2023-03-24T20:33:02.988Z,2.13
2023-03-24T20:35:40.906Z,2.03
2023-03-24T20:38:12.926Z,3.10
2023-03-24T20:40:43.331Z,3.10
2023-03-24T20:43:13.755Z,2.10
2023-03-24T20:45:44.318Z,2.55
2023-03-24T20:48:17.739Z,2.95
2023-03-24T20:50:48.246Z,3.00
2023-03-24T20:53:18.759Z,2.70
2023-03-24T20:55:58.745Z,2.95
2023-03-24T20:58:30.967Z,3.22
2023-03-24T21:01:03.779Z,2.90
2023-03-24T21:03:37.548Z,2.95
2023-03-24T21:06:08.680Z,2.53
2023-03-24T21:08:42.757Z,3.22
2023-03-24T21:11:15.247Z,3.50
2023-03-24T21:13:45.677Z,3.28
2023-03-24T21:16:16.865Z,3.97
2023-03-24T21:18:50.015Z,3.40
2023-03-24T21:21:20.760Z,2.55
2023-03-24T21:23:53.188Z,2.75
2023-03-24T21:26:23.655Z,3.17
2023-03-24T21:28:54.455Z,3.00
2023-03-24T21:31:28.003Z,3.28
2023-03-24T21:34:01.486Z,4.18
2023-03-24T21:36:31.978Z,2.85
2023-03-24T21:39:02.420Z,2.75
2023-03-24T21:41:32.923Z,3.15
2023-03-24T21:44:04.076Z,2.70
2023-03-24T21:46:34.514Z,2.97
2023-03-24T21:49:11.267Z,3.15
2023-03-24T21:51:43.080Z,4.70
2023-03-24T21:54:15.115Z,3.60
2023-03-24T21:56:45.794Z,3.70
2023-03-24T21:59:16.250Z,3.20
2023-03-24T22:01:46.661Z,3.05
2023-03-24T22:04:19.655Z,3.25
2023-03-24T22:06:50.012Z,3.67
2023-03-24T22:09:20.477Z,2.92
2023-03-24T22:11:53.109Z,3.38
2023-03-24T22:14:23.584Z,3.05
2023-03-24T22:16:54.441Z,3.28
2023-03-24T22:19:27.827Z,3.13
2023-03-24T22:22:01.838Z,3.60
2023-03-24T22:24:32.786Z,3.47
2023-03-24T22:27:05.121Z,3.88
2023-03-24T22:29:40.842Z,3.53
2023-03-24T22:32:11.497Z,3.28
2023-03-24T22:34:44.498Z,3.13
2023-03-24T22:37:14.875Z,3.63
2023-03-24T22:39:45.545Z,2.72
2023-03-24T22:42:16.229Z,2.78
2023-03-24T22:44:46.585Z,3.60
2023-03-24T22:47:17.191Z,3.72
2023-03-24T22:49:51.053Z,2.60
2023-03-24T22:52:21.492Z,4.57
2023-03-24T22:54:52.354Z,2.78
2023-03-24T22:57:23.296Z,2.90
2023-03-24T22:59:53.783Z,2.72
2023-03-24T23:02:24.955Z,2.35
2023-03-24T23:04:58.213Z,2.55
2023-03-24T23:07:29.933Z,2.55
2023-03-24T23:10:02.128Z,3.60
2023-03-24T23:12:33.098Z,2.83
2023-03-24T23:15:04.163Z,2.67
2023-03-24T23:17:36.111Z,2.28
2023-03-24T23:20:13.037Z,3.03
2023-03-24T23:22:44.946Z,2.50
2023-03-24T23:25:19.578Z,1.70
2023-03-24T23:27:52.251Z,1.77
2023-03-24T23:30:25.194Z,1.30
2023-03-24T23:32:58.278Z,1.15
2023-03-24T23:35:32.029Z,1.50
2023-03-24T23:38:03.037Z,1.25
2023-03-24T23:40:34.013Z,1.13
2023-03-24T23:43:05.841Z,1.30
2023-03-24T23:45:36.981Z,1.23
2023-03-24T23:48:09.149Z,0.80
2023-03-24T23:50:46.677Z,1.23
2023-03-24T23:53:17.825Z,1.17
2023-03-24T23:55:52.039Z,1.00
2023-03-24T23:58:23.026Z,2.05
